createdAt,value
2023-04-30T00:00:23.457Z,0.50
2023-04-30T00:01:23.450Z,0.50
2023-04-30T00:02:23.642Z,0.50
2023-04-30T00:03:23.622Z,0.50
2023-04-30T00:04:23.621Z,0.50
2023-04-30T00:05:23.587Z,0.50
2023-04-30T00:06:24.168Z,0.50
2023-04-30T00:07:23.685Z,0.51
2023-04-30T00:08:23.811Z,0.50
2023-04-30T00:09:23.872Z,0.50
2023-04-30T00:10:23.959Z,0.50
2023-04-30T00:11:24.045Z,0.51
2023-04-30T00:12:24.164Z,0.54
2023-04-30T00:13:24.234Z,0.53
2023-04-30T00:14:24.325Z,0.50
2023-04-30T00:15:24.394Z,0.50
2023-04-30T00:16:24.433Z,0.51
2023-04-30T00:17:24.545Z,0.50
2023-04-30T00:18:24.563Z,0.54
2023-04-30T00:19:24.666Z,0.59
2023-04-30T00:20:24.741Z,0.62
2023-04-30T00:21:24.775Z,0.58
2023-04-30T00:22:24.876Z,0.59
2023-04-30T00:23:24.942Z,0.61
2023-04-30T00:24:25.029Z,0.61
2023-04-30T00:25:25.104Z,0.60
2023-04-30T00:26:25.184Z,0.58
2023-04-30T00:27:25.317Z,0.62
2023-04-30T00:28:25.380Z,0.65
2023-04-30T00:29:25.423Z,0.69
2023-04-30T00:30:25.466Z,0.69
2023-04-30T00:31:25.540Z,0.68
2023-04-30T00:32:25.717Z,0.66
2023-04-30T00:33:25.619Z,0.68
2023-04-30T00:34:26.030Z,0.68
2023-04-30T00:35:25.769Z,0.60
2023-04-30T00:36:25.819Z,0.58
2023-04-30T00:37:25.921Z,0.61
2023-04-30T00:38:25.977Z,0.62
2023-04-30T00:39:26.044Z,0.65
2023-04-30T00:40:26.108Z,0.62
2023-04-30T00:41:26.178Z,0.62
2023-04-30T00:42:26.238Z,0.65
2023-04-30T00:43:26.315Z,0.66
2023-04-30T00:44:26.459Z,0.67
2023-04-30T00:45:26.486Z,0.67
2023-04-30T00:46:26.641Z,0.66
2023-04-30T00:47:26.700Z,0.65
2023-04-30T00:48:26.759Z,0.64
2023-04-30T00:49:26.848Z,0.61
2023-04-30T00:50:26.904Z,0.63
2023-04-30T00:51:27.003Z,0.66
2023-04-30T00:52:27.104Z,0.69
2023-04-30T00:53:27.185Z,0.67
2023-04-30T00:54:27.267Z,0.67
2023-04-30T00:55:27.347Z,0.65
2023-04-30T00:56:27.462Z,0.60
2023-04-30T00:57:27.518Z,0.56
2023-04-30T00:58:27.573Z,0.55
2023-04-30T00:59:27.639Z,0.55
2023-04-30T01:00:27.702Z,0.55
2023-04-30T01:01:27.764Z,0.51
2023-04-30T01:02:27.938Z,0.50
2023-04-30T01:03:27.992Z,0.54
2023-04-30T01:04:27.902Z,0.62
2023-04-30T01:05:27.978Z,0.63
2023-04-30T01:06:28.109Z,0.62
2023-04-30T01:07:28.136Z,0.68
2023-04-30T01:08:28.187Z,0.67
2023-04-30T01:09:28.215Z,0.72
2023-04-30T01:10:28.274Z,0.81
2023-04-30T01:11:28.347Z,0.75
2023-04-30T01:12:28.430Z,0.82
2023-04-30T01:13:28.489Z,0.77
2023-04-30T01:14:28.586Z,0.78
2023-04-30T01:15:28.646Z,0.78
2023-04-30T01:16:28.842Z,0.77
2023-04-30T01:17:28.831Z,0.76
2023-04-30T01:18:29.034Z,0.77
2023-04-30T01:19:29.028Z,0.76
2023-04-30T01:20:29.142Z,0.66
2023-04-30T01:21:29.230Z,0.63
2023-04-30T01:22:29.338Z,0.58
2023-04-30T01:23:29.442Z,0.55
2023-04-30T01:24:29.540Z,0.58
2023-04-30T01:25:29.637Z,0.59
2023-04-30T01:26:29.725Z,0.56
2023-04-30T01:27:29.803Z,0.57
2023-04-30T01:28:29.839Z,0.60
2023-04-30T01:29:29.922Z,0.58
2023-04-30T01:30:30.024Z,0.61
2023-04-30T01:31:30.187Z,0.65
2023-04-30T01:32:30.328Z,0.65
2023-04-30T01:33:30.306Z,0.58
2023-04-30T01:34:30.417Z,0.55
2023-04-30T01:35:30.505Z,0.54
2023-04-30T01:36:30.594Z,0.51
2023-04-30T01:37:30.703Z,0.50
2023-04-30T01:38:30.841Z,0.50
2023-04-30T01:39:30.910Z,0.51
2023-04-30T01:40:31.043Z,0.55
2023-04-30T01:41:31.143Z,0.59
2023-04-30T01:42:31.220Z,0.57
2023-04-30T01:43:31.315Z,0.59
2023-04-30T01:44:31.422Z,0.55
2023-04-30T01:45:31.510Z,0.50
2023-04-30T01:46:31.578Z,0.51
2023-04-30T01:47:31.698Z,0.53
2023-04-30T01:48:31.750Z,0.53
2023-04-30T01:49:31.782Z,0.58
2023-04-30T01:50:31.870Z,0.61
2023-04-30T01:51:31.921Z,0.65
2023-04-30T01:52:31.987Z,0.70
2023-04-30T01:53:32.092Z,0.74
2023-04-30T01:54:32.133Z,0.75
2023-04-30T01:55:32.226Z,0.71
2023-04-30T01:56:32.310Z,0.69
2023-04-30T01:57:32.389Z,0.73
2023-04-30T01:58:32.419Z,0.73
2023-04-30T01:59:32.550Z,0.70
2023-04-30T02:00:32.587Z,0.69
2023-04-30T02:01:32.747Z,0.70
2023-04-30T02:02:32.846Z,0.70
2023-04-30T02:03:32.916Z,0.74
2023-04-30T02:04:32.939Z,0.77
2023-04-30T02:05:33.003Z,0.74
2023-04-30T02:06:33.095Z,0.68
2023-04-30T02:07:33.101Z,0.61
2023-04-30T02:08:33.137Z,0.63
2023-04-30T02:09:33.217Z,0.69
2023-04-30T02:10:33.277Z,0.74
2023-04-30T02:11:33.311Z,0.81
2023-04-30T02:12:33.361Z,0.78
2023-04-30T02:13:33.369Z,0.70
2023-04-30T02:14:33.406Z,0.74
2023-04-30T02:15:33.439Z,0.79
2023-04-30T02:16:33.556Z,0.79
2023-04-30T02:17:33.524Z,0.72
2023-04-30T02:18:33.555Z,0.71
2023-04-30T02:19:33.587Z,0.69
2023-04-30T02:20:33.700Z,0.83
2023-04-30T02:21:33.665Z,0.89
2023-04-30T02:22:33.726Z,0.96
2023-04-30T02:23:33.767Z,1.00
2023-04-30T02:24:33.836Z,0.84
2023-04-30T02:25:33.898Z,0.62
2023-04-30T02:26:33.946Z,0.56
2023-04-30T02:27:33.983Z,0.59
2023-04-30T02:28:34.034Z,0.65
2023-04-30T02:29:34.124Z,0.63
2023-04-30T02:30:34.198Z,0.50
2023-04-30T02:31:34.266Z,0.51
2023-04-30T02:32:34.330Z,0.52
2023-04-30T02:33:34.401Z,0.53
2023-04-30T02:34:34.491Z,0.54
2023-04-30T02:35:34.543Z,0.49
2023-04-30T02:36:34.646Z,0.50
2023-04-30T02:37:34.743Z,0.58
2023-04-30T02:38:34.842Z,0.69
2023-04-30T02:39:34.929Z,0.59
2023-04-30T02:40:35.021Z,0.55
2023-04-30T02:41:35.114Z,0.59
2023-04-30T02:42:35.194Z,0.56
2023-04-30T02:43:35.263Z,0.56
2023-04-30T02:44:35.340Z,0.60
2023-04-30T02:45:35.431Z,0.59
2023-04-30T02:46:35.479Z,0.62
2023-04-30T02:47:35.606Z,0.59
2023-04-30T02:48:35.655Z,0.50
2023-04-30T02:49:35.751Z,0.51
2023-04-30T02:50:35.863Z,0.50
2023-04-30T02:51:35.923Z,0.52
2023-04-30T02:52:36.023Z,0.54
2023-04-30T02:53:36.152Z,0.51
2023-04-30T02:54:36.250Z,0.54
2023-04-30T02:55:36.381Z,0.54
2023-04-30T02:56:36.467Z,0.53
2023-04-30T02:57:36.588Z,0.53
2023-04-30T02:58:36.711Z,0.55
2023-04-30T02:59:36.790Z,0.55
2023-04-30T03:00:36.885Z,0.55
2023-04-30T03:01:37.039Z,0.56
2023-04-30T03:02:37.165Z,0.56
2023-04-30T03:03:37.236Z,0.55
2023-04-30T03:04:37.281Z,0.59
2023-04-30T03:05:37.370Z,0.58
2023-04-30T03:06:37.544Z,0.53
2023-04-30T03:07:37.534Z,0.52
2023-04-30T03:08:37.649Z,0.53
2023-04-30T03:09:37.762Z,0.54
2023-04-30T03:10:37.846Z,0.54
2023-04-30T03:11:38.009Z,0.52
2023-04-30T03:12:38.107Z,0.50
2023-04-30T03:13:38.116Z,0.52
2023-04-30T03:14:38.195Z,0.53
2023-04-30T03:15:38.278Z,0.51
2023-04-30T03:16:38.429Z,0.52
2023-04-30T03:17:38.489Z,0.52
2023-04-30T03:18:38.573Z,0.53
2023-04-30T03:19:38.671Z,0.53
2023-04-30T03:20:38.748Z,0.53
2023-04-30T03:21:38.835Z,0.54
2023-04-30T03:22:38.917Z,0.52
2023-04-30T03:23:39.023Z,0.52
2023-04-30T03:24:39.082Z,0.51
2023-04-30T03:25:39.148Z,0.51
2023-04-30T03:26:39.232Z,0.53
2023-04-30T03:27:39.306Z,0.50
2023-04-30T03:28:39.386Z,0.50
2023-04-30T03:29:39.478Z,0.51
2023-04-30T03:30:39.649Z,0.54
2023-04-30T03:31:39.758Z,0.54
2023-04-30T03:32:39.848Z,0.50
2023-04-30T03:33:39.913Z,0.50
2023-04-30T03:34:40.025Z,0.51
2023-04-30T03:35:40.180Z,0.51
2023-04-30T03:36:40.316Z,0.51
2023-04-30T03:37:40.403Z,0.51
2023-04-30T03:38:40.509Z,0.51
2023-04-30T03:39:40.618Z,0.55
2023-04-30T03:40:40.722Z,0.58
2023-04-30T03:41:40.833Z,0.62
2023-04-30T03:42:40.979Z,0.63
2023-04-30T03:43:41.125Z,0.66
2023-04-30T03:44:41.211Z,0.71
2023-04-30T03:45:41.335Z,0.75
2023-04-30T03:46:41.514Z,0.76
2023-04-30T03:47:41.564Z,0.77
2023-04-30T03:48:41.646Z,0.81
2023-04-30T03:49:41.772Z,0.81
2023-04-30T03:50:41.851Z,0.82
2023-04-30T03:51:42.127Z,0.86
2023-04-30T03:52:42.023Z,0.85
2023-04-30T03:53:42.086Z,0.86
2023-04-30T03:54:42.191Z,0.84
2023-04-30T03:55:42.351Z,0.79
2023-04-30T03:56:42.451Z,0.78
2023-04-30T03:57:42.577Z,0.74
2023-04-30T03:58:42.694Z,0.76
2023-04-30T03:59:42.817Z,0.70
2023-04-30T04:00:42.940Z,0.64
2023-04-30T04:01:43.082Z,0.64
2023-04-30T04:02:43.129Z,0.66
2023-04-30T04:03:43.215Z,0.67
2023-04-30T04:04:43.227Z,0.65
2023-04-30T04:05:43.383Z,0.60
2023-04-30T04:06:43.534Z,0.63
2023-04-30T04:07:43.585Z,0.66
2023-04-30T04:08:43.665Z,0.70
2023-04-30T04:09:43.720Z,0.68
2023-04-30T04:10:43.779Z,0.66
2023-04-30T04:11:43.863Z,0.70
2023-04-30T04:12:43.968Z,0.70
2023-04-30T04:13:44.039Z,0.65
2023-04-30T04:14:44.157Z,0.66
2023-04-30T04:15:44.319Z,0.60
2023-04-30T04:16:44.384Z,0.62
2023-04-30T04:17:44.462Z,0.61
2023-04-30T04:18:44.493Z,0.68
2023-04-30T04:19:44.542Z,0.74
2023-04-30T04:20:44.652Z,0.82
2023-04-30T04:21:44.708Z,0.82
2023-04-30T04:22:44.812Z,0.84
2023-04-30T04:23:44.874Z,0.80
2023-04-30T04:24:44.979Z,0.76
2023-04-30T04:25:45.100Z,0.73
2023-04-30T04:26:47.525Z,0.76
2023-04-30T04:27:45.256Z,0.77
2023-04-30T04:28:45.288Z,0.81
2023-04-30T04:29:45.335Z,0.78
2023-04-30T04:30:45.383Z,0.74
2023-04-30T04:31:45.476Z,0.76
2023-04-30T04:32:45.512Z,0.78
2023-04-30T04:33:45.552Z,0.72
2023-04-30T04:34:45.599Z,0.61
2023-04-30T04:35:45.660Z,0.54
2023-04-30T04:36:45.715Z,0.56
2023-04-30T04:37:45.761Z,0.58
2023-04-30T04:38:45.817Z,0.54
2023-04-30T04:39:45.887Z,0.52
2023-04-30T04:40:45.943Z,0.53
2023-04-30T04:41:46.031Z,0.54
2023-04-30T04:42:46.114Z,0.58
2023-04-30T04:43:46.205Z,0.64
2023-04-30T04:44:46.197Z,0.68
2023-04-30T04:45:46.259Z,0.67
2023-04-30T04:46:46.409Z,0.58
2023-04-30T04:47:46.427Z,0.55
2023-04-30T04:48:46.430Z,0.50
2023-04-30T04:49:46.469Z,0.54
2023-04-30T04:50:46.547Z,0.63
2023-04-30T04:51:46.605Z,0.68
2023-04-30T04:52:46.626Z,0.66
2023-04-30T04:53:46.675Z,0.62
2023-04-30T04:54:46.735Z,0.61
2023-04-30T04:55:46.797Z,0.61
2023-04-30T04:56:46.855Z,0.61
2023-04-30T04:57:46.908Z,0.62
2023-04-30T04:58:46.991Z,0.64
2023-04-30T04:59:47.076Z,0.65
2023-04-30T05:00:47.134Z,0.67
2023-04-30T05:01:47.255Z,0.70
2023-04-30T05:02:47.380Z,0.68
2023-04-30T05:03:47.510Z,0.68
2023-04-30T05:04:47.514Z,0.72
2023-04-30T05:05:47.571Z,0.70
2023-04-30T05:06:47.714Z,0.73
2023-04-30T05:07:47.723Z,0.74
2023-04-30T05:08:47.825Z,0.75
2023-04-30T05:09:47.866Z,0.72
2023-04-30T05:10:47.963Z,0.68
2023-04-30T05:11:48.018Z,0.65
2023-04-30T05:12:48.099Z,0.66
2023-04-30T05:13:48.232Z,0.66
2023-04-30T05:14:48.400Z,0.68
2023-04-30T05:15:48.543Z,0.69
2023-04-30T05:16:48.736Z,0.67
2023-04-30T05:17:48.856Z,0.67
2023-04-30T05:18:48.944Z,0.68
2023-04-30T05:19:49.105Z,0.64
2023-04-30T05:20:49.239Z,0.67
2023-04-30T05:21:49.347Z,0.68
2023-04-30T05:22:49.476Z,0.66
2023-04-30T05:23:49.607Z,0.65
2023-04-30T05:24:49.718Z,0.64
2023-04-30T05:25:49.892Z,0.65
2023-04-30T05:26:50.580Z,0.64
2023-04-30T05:27:50.173Z,0.64
2023-04-30T05:28:50.323Z,0.62
2023-04-30T05:29:50.501Z,0.59
2023-04-30T05:30:50.632Z,0.58
2023-04-30T05:31:50.830Z,0.63
2023-04-30T05:32:50.981Z,0.63
2023-04-30T05:33:51.054Z,0.63
2023-04-30T05:34:51.157Z,0.67
2023-04-30T05:35:51.258Z,0.71
2023-04-30T05:36:51.384Z,0.70
2023-04-30T05:37:51.455Z,0.61
2023-04-30T05:38:51.578Z,0.59
2023-04-30T05:39:51.666Z,0.56
2023-04-30T05:40:51.779Z,0.57
2023-04-30T05:41:53.479Z,0.61
2023-04-30T05:42:52.136Z,0.68
2023-04-30T05:43:52.175Z,0.70
2023-04-30T05:44:52.250Z,0.69
2023-04-30T05:45:52.381Z,0.64
2023-04-30T05:46:52.390Z,0.64
2023-04-30T05:47:52.524Z,0.64
2023-04-30T05:48:52.551Z,0.66
2023-04-30T05:49:52.821Z,0.73
2023-04-30T05:50:52.664Z,0.74
2023-04-30T05:51:52.740Z,0.69
2023-04-30T05:52:52.823Z,0.70
2023-04-30T05:53:52.931Z,0.67
2023-04-30T05:54:53.004Z,0.61
2023-04-30T05:55:53.072Z,0.66
2023-04-30T05:56:53.151Z,0.63
2023-04-30T05:57:53.248Z,0.62
2023-04-30T05:58:53.299Z,0.69
2023-04-30T05:59:53.552Z,0.71
2023-04-30T06:00:53.488Z,0.70
2023-04-30T06:01:53.650Z,0.73
2023-04-30T06:02:53.727Z,0.69
2023-04-30T06:03:53.752Z,0.62
2023-04-30T06:04:53.851Z,0.61
2023-04-30T06:05:54.060Z,0.68
2023-04-30T06:06:53.981Z,0.72
2023-04-30T06:07:54.074Z,0.65
2023-04-30T06:08:54.179Z,0.59
2023-04-30T06:09:54.554Z,0.64
2023-04-30T06:10:54.351Z,0.60
2023-04-30T06:11:54.417Z,0.59
2023-04-30T06:12:54.522Z,0.50
2023-04-30T06:13:54.654Z,0.50
2023-04-30T06:14:54.724Z,0.52
2023-04-30T06:15:54.798Z,0.50
2023-04-30T06:16:54.949Z,0.53
2023-04-30T06:17:55.015Z,0.59
2023-04-30T06:18:54.986Z,0.64
2023-04-30T06:19:55.402Z,0.54
2023-04-30T06:20:55.101Z,0.52
2023-04-30T06:21:55.151Z,0.50
2023-04-30T06:22:55.253Z,0.50
2023-04-30T06:23:55.370Z,0.57
2023-04-30T06:24:55.486Z,0.57
2023-04-30T06:25:55.627Z,0.61
2023-04-30T06:26:55.679Z,0.66
2023-04-30T06:27:55.740Z,0.70
2023-04-30T06:28:55.839Z,0.67
2023-04-30T06:29:56.303Z,0.50
2023-04-30T06:30:56.041Z,0.34
2023-04-30T06:31:56.092Z,0.36
2023-04-30T06:32:56.234Z,0.54
2023-04-30T06:33:56.218Z,0.50
2023-04-30T06:34:56.273Z,0.48
2023-04-30T06:35:56.346Z,0.50
2023-04-30T06:36:56.503Z,0.51
2023-04-30T06:37:56.573Z,0.49
2023-04-30T06:38:56.666Z,0.53
2023-04-30T06:39:57.091Z,0.56
2023-04-30T06:40:56.783Z,0.51
2023-04-30T06:41:56.857Z,0.52
2023-04-30T06:42:56.884Z,0.52
2023-04-30T06:43:56.948Z,0.50
2023-04-30T06:44:57.026Z,0.49
2023-04-30T06:45:57.087Z,0.55
2023-04-30T06:46:57.124Z,0.74
2023-04-30T06:47:57.264Z,0.71
2023-04-30T06:48:57.676Z,0.97
2023-04-30T06:49:57.354Z,1.12
2023-04-30T06:50:57.637Z,0.83
2023-04-30T06:51:57.376Z,0.68
2023-04-30T06:52:57.422Z,0.70
2023-04-30T06:53:57.456Z,0.68
2023-04-30T06:54:57.527Z,0.60
2023-04-30T06:55:57.613Z,0.54
2023-04-30T06:56:57.685Z,0.55
2023-04-30T06:57:57.799Z,0.51
2023-04-30T06:58:57.839Z,0.52
2023-04-30T06:59:57.900Z,0.50
2023-04-30T07:00:57.924Z,0.64
2023-04-30T07:01:58.141Z,0.48
2023-04-30T07:02:58.236Z,0.62
2023-04-30T07:03:58.254Z,0.67
2023-04-30T07:04:58.240Z,0.53
2023-04-30T07:05:58.309Z,0.50
2023-04-30T07:06:58.349Z,0.50
2023-04-30T07:07:58.428Z,0.54
2023-04-30T07:08:58.509Z,0.67
2023-04-30T07:09:58.567Z,0.48
2023-04-30T07:10:58.667Z,0.50
2023-04-30T07:11:58.778Z,0.54
2023-04-30T07:12:58.810Z,0.53
2023-04-30T07:13:58.883Z,0.55
2023-04-30T07:14:58.936Z,0.60
2023-04-30T07:15:59.066Z,0.56
2023-04-30T07:16:59.099Z,0.72
2023-04-30T07:17:59.258Z,0.56
2023-04-30T07:18:59.287Z,0.49
2023-04-30T07:19:59.366Z,0.50
2023-04-30T07:20:59.442Z,0.51
2023-04-30T07:21:59.479Z,0.59
2023-04-30T07:22:59.561Z,0.50
2023-04-30T07:23:59.660Z,0.68
2023-04-30T07:24:59.805Z,0.80
2023-04-30T07:25:59.844Z,0.61
2023-04-30T07:26:59.937Z,0.58
2023-04-30T07:27:59.987Z,0.62
2023-04-30T07:29:00.085Z,0.83
2023-04-30T07:30:00.220Z,0.99
2023-04-30T07:31:00.260Z,1.32
2023-04-30T07:32:00.392Z,1.48
2023-04-30T07:33:00.343Z,1.24
2023-04-30T07:34:00.344Z,1.19
2023-04-30T07:35:00.366Z,1.42
2023-04-30T07:36:00.397Z,1.36
2023-04-30T07:37:00.464Z,1.25
2023-04-30T07:38:00.495Z,0.67
2023-04-30T07:39:00.544Z,0.62
2023-04-30T07:40:00.937Z,0.75
2023-04-30T07:41:00.622Z,0.85
2023-04-30T07:42:00.723Z,0.89
2023-04-30T07:43:00.752Z,0.56
2023-04-30T07:44:00.785Z,0.44
2023-04-30T07:45:00.836Z,0.49
2023-04-30T07:46:00.951Z,0.45
2023-04-30T07:47:00.970Z,0.64
2023-04-30T07:48:01.132Z,0.96
2023-04-30T07:49:01.161Z,0.94
2023-04-30T07:50:01.295Z,0.73
2023-04-30T07:51:01.351Z,0.71
2023-04-30T07:52:01.417Z,0.66
2023-04-30T07:53:01.456Z,0.59
2023-04-30T07:54:01.434Z,0.57
2023-04-30T07:55:01.460Z,0.61
2023-04-30T07:56:01.521Z,0.58
2023-04-30T07:57:01.607Z,0.45
2023-04-30T07:58:01.658Z,0.51
2023-04-30T07:59:01.680Z,0.39
2023-04-30T08:00:01.709Z,0.44
2023-04-30T08:01:01.758Z,0.53
2023-04-30T08:02:01.782Z,0.50
2023-04-30T08:03:01.934Z,0.49
2023-04-30T08:04:01.928Z,0.63
2023-04-30T08:05:01.912Z,0.41
2023-04-30T08:06:01.946Z,0.34
2023-04-30T08:07:01.964Z,0.34
2023-04-30T08:08:01.993Z,0.34
2023-04-30T08:09:02.057Z,0.38
2023-04-30T08:10:02.086Z,0.55
2023-04-30T08:11:02.123Z,0.44
2023-04-30T08:12:02.176Z,0.34
2023-04-30T08:13:02.226Z,0.37
2023-04-30T08:14:02.258Z,0.58
2023-04-30T08:15:02.314Z,0.44
2023-04-30T08:16:02.380Z,0.56
2023-04-30T08:17:02.522Z,0.74
2023-04-30T08:18:02.428Z,0.68
2023-04-30T08:19:02.464Z,0.75
2023-04-30T08:20:02.489Z,0.65
2023-04-30T08:21:02.576Z,0.78
2023-04-30T08:22:02.592Z,1.56
2023-04-30T08:23:02.625Z,1.99
2023-04-30T08:24:02.667Z,2.34
2023-04-30T08:25:02.739Z,1.83
2023-04-30T08:26:02.742Z,1.82
2023-04-30T08:27:02.808Z,1.17
2023-04-30T08:28:02.963Z,1.27
2023-04-30T08:29:02.946Z,1.24
2023-04-30T08:30:02.974Z,1.26
2023-04-30T08:31:03.008Z,1.25
2023-04-30T08:32:03.082Z,1.05
2023-04-30T08:33:03.221Z,0.96
2023-04-30T08:34:03.192Z,1.17
2023-04-30T08:35:03.253Z,1.37
2023-04-30T08:36:03.280Z,1.23
2023-04-30T08:37:03.331Z,1.43
2023-04-30T08:38:03.373Z,1.47
2023-04-30T08:39:03.414Z,1.64
2023-04-30T08:40:03.433Z,1.58
2023-04-30T08:41:03.513Z,1.21
2023-04-30T08:42:03.543Z,1.13
2023-04-30T08:43:03.590Z,1.16
2023-04-30T08:44:04.311Z,1.54
2023-04-30T08:45:03.720Z,1.92
2023-04-30T08:46:03.856Z,1.45
2023-04-30T08:47:03.843Z,1.61
2023-04-30T08:48:03.950Z,1.46
2023-04-30T08:49:03.928Z,1.42
2023-04-30T08:50:03.985Z,1.60
2023-04-30T08:51:04.002Z,1.31
2023-04-30T08:52:04.071Z,0.88
2023-04-30T08:53:04.128Z,1.17
2023-04-30T08:54:04.184Z,1.24
2023-04-30T08:55:04.260Z,1.22
2023-04-30T08:56:05.118Z,0.71
2023-04-30T08:57:04.379Z,0.50
2023-04-30T08:58:04.393Z,0.48
2023-04-30T08:59:04.423Z,0.52
2023-04-30T09:00:04.461Z,0.50
2023-04-30T09:01:04.543Z,0.34
2023-04-30T09:02:04.637Z,0.37
2023-04-30T09:03:04.612Z,0.50
2023-04-30T09:04:04.614Z,1.10
2023-04-30T09:05:04.652Z,0.85
2023-04-30T09:06:04.646Z,0.90
2023-04-30T09:07:05.584Z,0.68
2023-04-30T09:08:04.731Z,0.60
2023-04-30T09:09:04.680Z,0.82
2023-04-30T09:10:04.717Z,0.71
2023-04-30T09:11:04.738Z,0.50
2023-04-30T09:12:04.705Z,0.58
2023-04-30T09:13:04.805Z,0.49
2023-04-30T09:14:04.762Z,0.69
2023-04-30T09:15:04.807Z,0.77
2023-04-30T09:16:04.844Z,0.87
2023-04-30T09:17:04.807Z,0.69
2023-04-30T09:18:04.832Z,0.76
2023-04-30T09:19:04.831Z,0.46
2023-04-30T09:20:04.872Z,0.34
2023-04-30T09:21:04.857Z,0.34
2023-04-30T09:22:04.832Z,0.34
2023-04-30T09:23:04.854Z,0.34
2023-04-30T09:24:04.839Z,0.36
2023-04-30T09:25:04.859Z,0.50
2023-04-30T09:26:04.868Z,0.78
2023-04-30T09:27:04.857Z,0.74
2023-04-30T09:28:04.864Z,0.37
2023-04-30T09:29:04.874Z,0.34
2023-04-30T09:30:04.885Z,0.34
2023-04-30T09:31:04.840Z,0.34
2023-04-30T09:32:04.855Z,0.34
2023-04-30T09:33:04.876Z,0.35
2023-04-30T09:34:04.835Z,0.45
2023-04-30T09:35:04.861Z,0.49
2023-04-30T09:36:04.842Z,0.45
2023-04-30T09:37:04.838Z,0.34
2023-04-30T09:38:04.838Z,0.34
2023-04-30T09:39:04.844Z,0.56
2023-04-30T09:40:04.866Z,0.51
2023-04-30T09:41:04.839Z,0.36
2023-04-30T09:42:04.882Z,0.51
2023-04-30T09:43:04.852Z,0.84
2023-04-30T09:44:04.829Z,0.50
2023-04-30T09:45:05.019Z,0.34
2023-04-30T09:46:04.952Z,0.34
2023-04-30T09:47:05.024Z,0.60
2023-04-30T09:48:16.400Z,0.74
2023-04-30T09:49:05.023Z,0.64
2023-04-30T09:50:05.106Z,0.57
2023-04-30T09:51:05.020Z,0.77
2023-04-30T09:54:43.190Z,0.50
2023-04-30T09:55:44.153Z,0.50
2023-04-30T09:56:44.112Z,0.50
2023-04-30T09:57:44.095Z,0.50
2023-04-30T09:58:44.041Z,0.50
2023-04-30T09:59:44.003Z,0.63
2023-04-30T10:00:44.042Z,0.34
2023-04-30T10:01:43.975Z,0.34
2023-04-30T10:02:46.627Z,0.34
2023-04-30T10:03:46.506Z,0.34
2023-04-30T10:04:43.811Z,0.34
2023-04-30T10:05:43.764Z,0.34
2023-04-30T10:06:43.846Z,0.34
2023-04-30T10:07:43.692Z,0.35
2023-04-30T10:08:43.664Z,0.39
2023-04-30T10:09:43.607Z,0.49
2023-04-30T10:10:49.433Z,0.34
2023-04-30T10:11:47.749Z,0.34
2023-04-30T10:12:43.509Z,0.34
2023-04-30T10:13:43.448Z,0.34
2023-04-30T10:14:43.770Z,0.34
2023-04-30T10:15:43.372Z,0.34
2023-04-30T10:16:43.426Z,0.38
2023-04-30T10:17:43.322Z,0.50
2023-04-30T10:18:43.236Z,0.62
2023-04-30T10:19:43.788Z,1.53
2023-04-30T10:20:44.084Z,1.06
2023-04-30T10:21:43.346Z,0.34
2023-04-30T10:22:43.353Z,0.34
2023-04-30T10:23:43.347Z,0.48
2023-04-30T10:24:43.332Z,0.40
2023-04-30T10:25:43.283Z,0.34
2023-04-30T10:26:43.282Z,0.41
2023-04-30T10:27:43.351Z,0.69
2023-04-30T10:28:43.475Z,0.50
2023-04-30T10:29:43.635Z,0.54
2023-04-30T10:30:43.294Z,0.37
2023-04-30T10:31:43.297Z,0.34
2023-04-30T10:32:43.330Z,0.34
2023-04-30T10:33:43.244Z,0.34
2023-04-30T10:34:43.855Z,0.34
2023-04-30T10:35:43.292Z,0.34
2023-04-30T10:36:45.011Z,0.47
2023-04-30T10:37:43.977Z,0.47
2023-04-30T10:38:43.660Z,0.49
2023-04-30T10:39:43.412Z,0.49
2023-04-30T10:40:43.518Z,0.34
2023-04-30T10:41:43.504Z,0.34
2023-04-30T10:42:43.519Z,0.34
2023-04-30T10:43:43.506Z,0.34
2023-04-30T10:44:43.498Z,0.34
2023-04-30T10:45:43.553Z,0.34
2023-04-30T10:46:43.572Z,0.48
2023-04-30T10:47:43.611Z,0.51
2023-04-30T10:48:43.621Z,0.47
2023-04-30T10:49:43.585Z,0.51
2023-04-30T10:50:45.794Z,0.50
2023-04-30T10:51:43.616Z,0.37
2023-04-30T10:52:43.568Z,0.35
2023-04-30T10:53:46.471Z,0.49
2023-04-30T10:54:43.485Z,0.50
2023-04-30T10:55:44.414Z,0.53
2023-04-30T10:56:43.420Z,0.65
2023-04-30T10:57:43.411Z,0.92
2023-04-30T10:58:43.373Z,1.63
2023-04-30T10:59:43.325Z,1.43
2023-04-30T11:00:44.990Z,1.34
2023-04-30T11:01:43.402Z,1.49
2023-04-30T11:02:44.666Z,1.49
2023-04-30T11:03:43.744Z,1.60
2023-04-30T11:04:43.446Z,1.46
2023-04-30T11:05:43.080Z,1.58
2023-04-30T11:06:44.936Z,2.22
2023-04-30T11:07:43.025Z,1.53
2023-04-30T11:08:42.981Z,1.51
2023-04-30T11:09:42.951Z,1.61
2023-04-30T11:10:42.928Z,2.16
2023-04-30T11:11:42.856Z,2.30
2023-04-30T11:12:42.799Z,1.69
2023-04-30T11:13:42.872Z,2.13
2023-04-30T11:14:42.706Z,2.78
2023-04-30T11:15:42.708Z,2.24
2023-04-30T11:16:42.700Z,4.14
2023-04-30T11:17:42.579Z,3.74
2023-04-30T11:18:42.526Z,2.27
2023-04-30T11:19:43.832Z,1.76
2023-04-30T11:20:42.448Z,1.20
2023-04-30T11:21:42.741Z,1.10
2023-04-30T11:22:42.342Z,0.84
2023-04-30T11:23:42.543Z,0.52
2023-04-30T11:24:42.264Z,0.39
2023-04-30T11:25:42.217Z,0.40
2023-04-30T11:26:42.286Z,0.61
2023-04-30T11:27:42.795Z,0.78
2023-04-30T11:28:42.091Z,0.75
2023-04-30T11:29:42.056Z,0.64
2023-04-30T11:30:42.000Z,0.69
2023-04-30T11:31:41.977Z,0.68
2023-04-30T11:32:41.901Z,0.67
2023-04-30T11:33:41.862Z,1.10
2023-04-30T11:34:41.824Z,1.36
2023-04-30T11:35:41.767Z,0.92
2023-04-30T11:36:41.739Z,0.70
2023-04-30T11:37:41.699Z,0.68
2023-04-30T11:38:41.810Z,0.93
2023-04-30T11:39:41.747Z,1.18
2023-04-30T11:40:41.721Z,0.79
2023-04-30T11:41:41.731Z,0.64
2023-04-30T11:42:44.889Z,0.40
2023-04-30T11:43:41.635Z,0.34
2023-04-30T11:44:41.590Z,0.41
2023-04-30T11:45:43.033Z,0.35
2023-04-30T11:46:43.472Z,0.40
2023-04-30T11:47:45.352Z,0.41
2023-04-30T11:48:42.079Z,0.41
2023-04-30T11:49:41.587Z,0.46
2023-04-30T11:50:41.895Z,0.63
2023-04-30T11:51:41.505Z,0.86
2023-04-30T11:52:41.469Z,1.19
2023-04-30T11:53:41.386Z,0.76
2023-04-30T11:54:41.324Z,0.72
2023-04-30T11:55:41.280Z,0.68
2023-04-30T11:56:41.790Z,0.50
2023-04-30T11:57:41.537Z,0.50
2023-04-30T11:58:41.878Z,0.50
2023-04-30T11:59:41.082Z,0.39
2023-04-30T12:00:41.052Z,0.46
2023-04-30T12:01:41.079Z,0.75
2023-04-30T12:02:41.048Z,1.01
2023-04-30T12:03:40.996Z,0.92
2023-04-30T12:04:40.842Z,0.44
2023-04-30T12:05:42.646Z,0.55
2023-04-30T12:08:08.635Z,0.50
2023-04-30T12:09:00.460Z,0.50
2023-04-30T12:10:00.447Z,0.50
2023-04-30T12:11:00.461Z,0.50
2023-04-30T12:12:00.457Z,0.50
2023-04-30T12:13:00.459Z,0.50
2023-04-30T12:14:00.439Z,0.56
2023-04-30T12:15:00.430Z,0.51
2023-04-30T12:16:00.418Z,0.50
2023-04-30T12:17:00.515Z,0.60
2023-04-30T12:18:00.486Z,0.74
2023-04-30T12:19:00.409Z,1.24
2023-04-30T12:20:00.404Z,0.83
2023-04-30T12:21:00.389Z,0.67
2023-04-30T12:22:00.380Z,0.71
2023-04-30T12:23:00.435Z,0.70
2023-04-30T12:24:02.775Z,0.91
2023-04-30T12:25:00.466Z,1.03
2023-04-30T12:26:00.454Z,0.94
2023-04-30T12:27:00.454Z,0.67
2023-04-30T12:28:00.448Z,0.48
2023-04-30T12:29:00.423Z,0.34
2023-04-30T12:30:01.196Z,0.34
2023-04-30T12:31:00.426Z,0.34
2023-04-30T12:32:00.436Z,0.34
2023-04-30T12:33:00.600Z,0.36
2023-04-30T12:34:00.393Z,0.86
2023-04-30T12:35:00.381Z,1.15
2023-04-30T12:36:00.363Z,1.05
2023-04-30T12:37:00.356Z,1.93
2023-04-30T12:38:00.378Z,2.18
2023-04-30T12:39:00.356Z,1.18
2023-04-30T12:40:00.411Z,0.90
2023-04-30T12:41:02.059Z,1.42
2023-04-30T12:42:00.359Z,1.28
2023-04-30T12:43:00.386Z,1.24
2023-04-30T12:44:00.363Z,0.87
2023-04-30T12:45:00.367Z,0.81
2023-04-30T12:46:00.391Z,1.08
2023-04-30T12:47:00.383Z,1.31
2023-04-30T12:48:00.447Z,2.32
2023-04-30T12:49:00.393Z,1.93
2023-04-30T12:50:00.381Z,1.80
2023-04-30T12:51:00.385Z,1.20
2023-04-30T12:52:00.397Z,0.82
2023-04-30T12:53:00.446Z,0.79
2023-04-30T12:54:00.437Z,0.93
2023-04-30T12:55:00.431Z,1.16
2023-04-30T12:56:00.535Z,1.12
2023-04-30T12:57:00.546Z,0.71
2023-04-30T12:58:00.437Z,0.47
2023-04-30T12:59:00.418Z,0.41
2023-04-30T13:00:00.447Z,0.53
2023-04-30T13:01:00.513Z,1.13
2023-04-30T13:02:00.512Z,1.84
2023-04-30T13:03:00.560Z,1.02
2023-04-30T13:04:00.532Z,1.16
2023-04-30T13:05:00.388Z,1.57
2023-04-30T13:06:00.445Z,1.03
2023-04-30T13:07:00.435Z,1.58
2023-04-30T13:08:00.493Z,1.91
2023-04-30T13:09:00.578Z,3.23
2023-04-30T13:10:00.616Z,2.77
2023-04-30T13:11:00.653Z,3.25
2023-04-30T13:12:00.720Z,3.67
2023-04-30T13:13:08.333Z,3.97
2023-04-30T13:14:00.884Z,1.48
2023-04-30T13:15:00.916Z,0.94
2023-04-30T13:16:01.007Z,0.98
2023-04-30T13:17:01.012Z,0.90
2023-04-30T13:18:03.341Z,0.97
2023-04-30T13:19:01.063Z,1.11
2023-04-30T13:20:01.072Z,0.85
2023-04-30T13:21:01.104Z,1.09
2023-04-30T13:22:01.088Z,1.48
2023-04-30T13:23:01.079Z,1.47